Terminal Aerodrome Forecast
Issued by NWS Twin Cities, MN

Home | Current Version | Previous Version | Graphics & Text | Print | Product List | Glossary On
Versions: 1 2 3 4 5 6 7 8 9 10 11 12 13 14 15 16 17 18 19 20 21 22 23 24 25 26 27 28
000
FTUS43 KMPX 020520
TAFMSP
TAF
KMSP 020520Z 0206/0312 29008KT P6SM FEW030
     FM021200 24004KT P6SM FEW250
     FM021600 17007KT P6SM SCT100
     FM030000 15012G19KT P6SM SCT060 OVC100
     FM030900 15008KT 1 1/2SM -SN OVC015=

USA.gov is the U.S. government's official web portal to all federal, state and local government web resources and services.